sensor_id;sensor_type;location;lat;lon;timestamp;P1;durP1;ratioP1;P2;durP2;ratioP2
61108;SDS011;46995;55.740;37.402;2023-03-01T00:01:08;2.40;;;0.70;;
61108;SDS011;46995;55.740;37.402;2023-03-01T00:03:38;1.50;;;0.60;;
61108;SDS011;46995;55.740;37.402;2023-03-01T00:06:07;4.43;;;0.85;;
61108;SDS011;46995;55.740;37.402;2023-03-01T00:08:35;3.05;;;0.77;;
61108;SDS011;46995;55.740;37.402;2023-03-01T00:13:42;2.90;;;1.08;;
61108;SDS011;46995;55.740;37.402;2023-03-01T00:18:38;1.77;;;0.80;;
61108;SDS011;46995;55.740;37.402;2023-03-01T00:21:07;2.35;;;1.00;;
61108;SDS011;46995;55.740;37.402;2023-03-01T00:23:34;3.10;;;1.10;;
61108;SDS011;46995;55.740;37.402;2023-03-01T00:26:01;3.57;;;0.97;;
61108;SDS011;46995;55.740;37.402;2023-03-01T00:28:27;2.33;;;0.85;;
61108;SDS011;46995;55.740;37.402;2023-03-01T00:31:07;1.83;;;1.00;;
61108;SDS011;46995;55.740;37.402;2023-03-01T00:33:35;3.30;;;0.95;;
61108;SDS011;46995;55.740;37.402;2023-03-01T00:36:02;2.67;;;0.77;;
61108;SDS011;46995;55.740;37.402;2023-03-01T00:38:29;3.17;;;0.98;;
61108;SDS011;46995;55.740;37.402;2023-03-01T00:40:55;2.80;;;0.70;;
61108;SDS011;46995;55.740;37.402;2023-03-01T00:43:32;2.67;;;0.80;;
61108;SDS011;46995;55.740;37.402;2023-03-01T00:46:06;3.28;;;0.82;;
61108;SDS011;46995;55.740;37.402;2023-03-01T00:48:34;1.95;;;0.80;;
61108;SDS011;46995;55.740;37.402;2023-03-01T00:51:11;3.55;;;0.95;;
61108;SDS011;46995;55.740;37.402;2023-03-01T00:53:43;3.70;;;1.15;;
61108;SDS011;46995;55.740;37.402;2023-03-01T00:56:11;3.05;;;1.20;;
61108;SDS011;46995;55.740;37.402;2023-03-01T00:58:39;4.68;;;1.00;;
61108;SDS011;46995;55.740;37.402;2023-03-01T01:01:17;1.52;;;0.70;;
61108;SDS011;46995;55.740;37.402;2023-03-01T01:03:46;2.42;;;0.90;;
61108;SDS011;46995;55.740;37.402;2023-03-01T01:06:17;7.25;;;1.10;;
61108;SDS011;46995;55.740;37.402;2023-03-01T01:08:47;5.68;;;1.00;;
61108;SDS011;46995;55.740;37.402;2023-03-01T01:11:14;2.55;;;1.40;;
61108;SDS011;46995;55.740;37.402;2023-03-01T01:13:44;6.07;;;0.85;;
61108;SDS011;46995;55.740;37.402;2023-03-01T01:16:11;7.28;;;1.02;;
61108;SDS011;46995;55.740;37.402;2023-03-01T01:18:37;3.00;;;0.83;;
61108;SDS011;46995;55.740;37.402;2023-03-01T01:21:08;1.80;;;0.63;;
61108;SDS011;46995;55.740;37.402;2023-03-01T01:23:36;5.47;;;1.00;;
61108;SDS011;46995;55.740;37.402;2023-03-01T01:26:09;2.88;;;1.00;;
61108;SDS011;46995;55.740;37.402;2023-03-01T01:28:37;3.03;;;0.90;;
61108;SDS011;46995;55.740;37.402;2023-03-01T01:31:07;4.22;;;0.68;;
61108;SDS011;46995;55.740;37.402;2023-03-01T01:33:33;3.30;;;0.80;;
61108;SDS011;46995;55.740;37.402;2023-03-01T01:36:00;2.50;;;1.33;;
61108;SDS011;46995;55.740;37.402;2023-03-01T01:38:26;3.15;;;0.82;;
61108;SDS011;46995;55.740;37.402;2023-03-01T01:40:52;4.80;;;1.00;;
61108;SDS011;46995;55.740;37.402;2023-03-01T01:45:44;3.10;;;0.82;;
61108;SDS011;46995;55.740;37.402;2023-03-01T01:48:11;2.90;;;0.90;;
61108;SDS011;46995;55.740;37.402;2023-03-01T01:50:42;6.32;;;1.27;;
61108;SDS011;46995;55.740;37.402;2023-03-01T01:53:12;2.60;;;0.95;;
61108;SDS011;46995;55.740;37.402;2023-03-01T01:55:45;2.28;;;0.73;;
61108;SDS011;46995;55.740;37.402;2023-03-01T01:58:18;4.32;;;0.95;;
61108;SDS011;46995;55.740;37.402;2023-03-01T02:00:49;3.78;;;0.75;;
61108;SDS011;46995;55.740;37.402;2023-03-01T02:03:19;2.83;;;0.95;;
61108;SDS011;46995;55.740;37.402;2023-03-01T02:08:59;5.13;;;0.80;;
61108;SDS011;46995;55.740;37.402;2023-03-01T02:11:35;8.52;;;0.73;;
61108;SDS011;46995;55.740;37.402;2023-03-01T02:14:09;5.50;;;0.80;;
61108;SDS011;46995;55.740;37.402;2023-03-01T02:16:59;1.60;;;0.70;;
61108;SDS011;46995;55.740;37.402;2023-03-01T02:23:03;1.92;;;0.50;;
61108;SDS011;46995;55.740;37.402;2023-03-01T02:25:47;1.30;;;0.75;;
61108;SDS011;46995;55.740;37.402;2023-03-01T02:29:09;5.82;;;0.85;;
61108;SDS011;46995;55.740;37.402;2023-03-01T02:32:14;6.90;;;0.70;;
61108;SDS011;46995;55.740;37.402;2023-03-01T02:34:44;2.78;;;0.85;;
61108;SDS011;46995;55.740;37.402;2023-03-01T02:37:13;2.05;;;0.60;;
61108;SDS011;46995;55.740;37.402;2023-03-01T02:40:11;3.15;;;0.70;;
61108;SDS011;46995;55.740;37.402;2023-03-01T02:45:36;1.05;;;0.43;;
61108;SDS011;46995;55.740;37.402;2023-03-01T02:48:38;1.98;;;0.70;;
61108;SDS011;46995;55.740;37.402;2023-03-01T02:51:48;1.95;;;0.60;;
61108;SDS011;46995;55.740;37.402;2023-03-01T02:57:53;2.33;;;0.80;;
61108;SDS011;46995;55.740;37.402;2023-03-01T03:00:22;7.72;;;0.80;;
61108;SDS011;46995;55.740;37.402;2023-03-01T03:06:56;2.75;;;0.88;;
61108;SDS011;46995;55.740;37.402;2023-03-01T03:09:40;1.57;;;0.83;;
61108;SDS011;46995;55.740;37.402;2023-03-01T03:12:08;4.10;;;0.80;;
61108;SDS011;46995;55.740;37.402;2023-03-01T03:14:35;5.57;;;0.90;;
61108;SDS011;46995;55.740;37.402;2023-03-01T03:17:02;7.82;;;0.75;;
61108;SDS011;46995;55.740;37.402;2023-03-01T03:19:32;2.60;;;0.80;;
61108;SDS011;46995;55.740;37.402;2023-03-01T03:21:59;7.57;;;1.70;;
61108;SDS011;46995;55.740;37.402;2023-03-01T03:24:25;2.58;;;0.85;;
61108;SDS011;46995;55.740;37.402;2023-03-01T03:26:51;3.10;;;0.73;;
61108;SDS011;46995;55.740;37.402;2023-03-01T03:29:20;5.20;;;1.00;;
61108;SDS011;46995;55.740;37.402;2023-03-01T03:31:46;3.40;;;1.00;;
61108;SDS011;46995;55.740;37.402;2023-03-01T03:34:12;3.95;;;0.90;;
61108;SDS011;46995;55.740;37.402;2023-03-01T03:36:43;5.47;;;1.27;;
61108;SDS011;46995;55.740;37.402;2023-03-01T03:39:09;3.10;;;1.00;;
61108;SDS011;46995;55.740;37.402;2023-03-01T03:41:37;4.78;;;0.82;;
61108;SDS011;46995;55.740;37.402;2023-03-01T03:44:03;2.15;;;1.00;;
61108;SDS011;46995;55.740;37.402;2023-03-01T03:46:29;5.40;;;0.80;;
61108;SDS011;46995;55.740;37.402;2023-03-01T03:48:56;6.28;;;1.08;;
61108;SDS011;46995;55.740;37.402;2023-03-01T03:51:27;2.88;;;0.90;;
61108;SDS011;46995;55.740;37.402;2023-03-01T03:53:53;3.22;;;0.98;;
61108;SDS011;46995;55.740;37.402;2023-03-01T03:56:21;2.13;;;0.93;;
61108;SDS011;46995;55.740;37.402;2023-03-01T03:58:51;3.97;;;0.95;;
61108;SDS011;46995;55.740;37.402;2023-03-01T04:01:19;6.65;;;1.10;;
61108;SDS011;46995;55.740;37.402;2023-03-01T04:03:45;6.43;;;0.70;;
61108;SDS011;46995;55.740;37.402;2023-03-01T04:06:14;6.85;;;1.83;;
61108;SDS011;46995;55.740;37.402;2023-03-01T04:08:43;8.10;;;1.40;;
61108;SDS011;46995;55.740;37.402;2023-03-01T04:11:10;5.03;;;1.00;;
61108;SDS011;46995;55.740;37.402;2023-03-01T04:13:52;2.08;;;0.80;;
61108;SDS011;46995;55.740;37.402;2023-03-01T04:16:21;5.40;;;0.93;;
61108;SDS011;46995;55.740;37.402;2023-03-01T04:18:47;2.72;;;1.02;;
61108;SDS011;46995;55.740;37.402;2023-03-01T04:21:13;1.75;;;0.95;;
61108;SDS011;46995;55.740;37.402;2023-03-01T04:23:39;6.15;;;1.25;;
61108;SDS011;46995;55.740;37.402;2023-03-01T04:26:06;4.38;;;1.05;;
61108;SDS011;46995;55.740;37.402;2023-03-01T04:31:02;6.13;;;1.05;;
61108;SDS011;46995;55.740;37.402;2023-03-01T04:33:53;3.78;;;0.82;;
61108;SDS011;46995;55.740;37.402;2023-03-01T04:36:21;2.42;;;1.20;;
61108;SDS011;46995;55.740;37.402;2023-03-01T04:38:51;5.65;;;1.63;;
61108;SDS011;46995;55.740;37.402;2023-03-01T04:41:18;4.53;;;1.08;;
61108;SDS011;46995;55.740;37.402;2023-03-01T04:43:45;2.10;;;0.90;;
61108;SDS011;46995;55.740;37.402;2023-03-01T04:46:31;1.92;;;0.68;;
61108;SDS011;46995;55.740;37.402;2023-03-01T04:48:58;3.03;;;1.17;;
61108;SDS011;46995;55.740;37.402;2023-03-01T04:51:24;4.15;;;1.23;;
61108;SDS011;46995;55.740;37.402;2023-03-01T04:53:50;7.40;;;1.27;;
61108;SDS011;46995;55.740;37.402;2023-03-01T04:56:15;5.35;;;1.15;;
61108;SDS011;46995;55.740;37.402;2023-03-01T04:58:43;4.80;;;1.70;;
61108;SDS011;46995;55.740;37.402;2023-03-01T05:01:15;5.32;;;1.70;;
61108;SDS011;46995;55.740;37.402;2023-03-01T05:03:44;4.18;;;1.02;;
61108;SDS011;46995;55.740;37.402;2023-03-01T05:06:12;4.63;;;1.35;;
61108;SDS011;46995;55.740;37.402;2023-03-01T05:08:39;8.85;;;1.63;;
61108;SDS011;46995;55.740;37.402;2023-03-01T05:11:05;4.07;;;1.70;;
61108;SDS011;46995;55.740;37.402;2023-03-01T05:13:33;8.45;;;2.20;;
61108;SDS011;46995;55.740;37.402;2023-03-01T05:16:02;7.97;;;3.03;;
61108;SDS011;46995;55.740;37.402;2023-03-01T05:18:30;12.52;;;3.10;;
61108;SDS011;46995;55.740;37.402;2023-03-01T05:23:34;10.60;;;3.28;;
61108;SDS011;46995;55.740;37.402;2023-03-01T05:26:03;9.25;;;3.67;;
61108;SDS011;46995;55.740;37.402;2023-03-01T05:28:32;9.82;;;3.88;;
61108;SDS011;46995;55.740;37.402;2023-03-01T05:30:58;8.85;;;3.53;;
61108;SDS011;46995;55.740;37.402;2023-03-01T05:33:25;8.15;;;3.97;;
61108;SDS011;46995;55.740;37.402;2023-03-01T05:35:52;6.68;;;3.38;;
61108;SDS011;46995;55.740;37.402;2023-03-01T05:38:19;6.63;;;3.70;;
61108;SDS011;46995;55.740;37.402;2023-03-01T05:40:46;8.68;;;3.40;;
61108;SDS011;46995;55.740;37.402;2023-03-01T05:43:14;9.48;;;3.72;;
61108;SDS011;46995;55.740;37.402;2023-03-01T05:45:47;7.30;;;3.08;;
61108;SDS011;46995;55.740;37.402;2023-03-01T05:48:16;5.70;;;2.78;;
61108;SDS011;46995;55.740;37.402;2023-03-01T05:50:58;7.32;;;3.35;;
61108;SDS011;46995;55.740;37.402;2023-03-01T05:53:28;7.28;;;3.42;;
61108;SDS011;46995;55.740;37.402;2023-03-01T05:56:10;19.10;;;9.43;;
61108;SDS011;46995;55.740;37.402;2023-03-01T05:58:52;11.48;;;2.78;;
61108;SDS011;46995;55.740;37.402;2023-03-01T06:01:21;7.05;;;2.33;;
61108;SDS011;46995;55.740;37.402;2023-03-01T06:03:48;8.93;;;2.38;;
61108;SDS011;46995;55.740;37.402;2023-03-01T06:06:15;7.95;;;2.50;;
61108;SDS011;46995;55.740;37.402;2023-03-01T06:08:40;9.68;;;2.53;;
61108;SDS011;46995;55.740;37.402;2023-03-01T06:11:15;1.92;;;1.05;;
61108;SDS011;46995;55.740;37.402;2023-03-01T06:13:42;8.20;;;1.80;;
61108;SDS011;46995;55.740;37.402;2023-03-01T06:16:08;6.70;;;1.83;;
61108;SDS011;46995;55.740;37.402;2023-03-01T06:18:35;4.90;;;1.35;;
61108;SDS011;46995;55.740;37.402;2023-03-01T06:21:01;3.73;;;1.60;;
61108;SDS011;46995;55.740;37.402;2023-03-01T06:23:29;6.32;;;2.13;;
61108;SDS011;46995;55.740;37.402;2023-03-01T06:25:55;2.72;;;1.10;;
61108;SDS011;46995;55.740;37.402;2023-03-01T06:28:23;3.33;;;1.40;;
61108;SDS011;46995;55.740;37.402;2023-03-01T06:30:50;3.28;;;1.25;;
61108;SDS011;46995;55.740;37.402;2023-03-01T06:33:19;5.75;;;1.63;;
61108;SDS011;46995;55.740;37.402;2023-03-01T06:35:50;6.93;;;1.50;;
61108;SDS011;46995;55.740;37.402;2023-03-01T06:38:19;2.10;;;1.00;;
61108;SDS011;46995;55.740;37.402;2023-03-01T06:40:51;5.00;;;1.70;;
61108;SDS011;46995;55.740;37.402;2023-03-01T06:43:20;2.08;;;1.05;;
61108;SDS011;46995;55.740;37.402;2023-03-01T06:45:47;2.75;;;1.13;;
61108;SDS011;46995;55.740;37.402;2023-03-01T06:48:15;4.10;;;1.13;;
61108;SDS011;46995;55.740;37.402;2023-03-01T06:50:41;3.40;;;1.00;;
61108;SDS011;46995;55.740;37.402;2023-03-01T06:53:08;3.97;;;1.20;;
61108;SDS011;46995;55.740;37.402;2023-03-01T06:55:34;2.85;;;0.90;;
61108;SDS011;46995;55.740;37.402;2023-03-01T06:58:00;8.68;;;1.75;;
61108;SDS011;46995;55.740;37.402;2023-03-01T07:00:28;6.47;;;1.13;;
61108;SDS011;46995;55.740;37.402;2023-03-01T07:02:54;5.47;;;1.00;;
61108;SDS011;46995;55.740;37.402;2023-03-01T07:05:20;5.80;;;1.17;;
61108;SDS011;46995;55.740;37.402;2023-03-01T07:07:46;3.10;;;0.90;;
61108;SDS011;46995;55.740;37.402;2023-03-01T07:10:12;1.90;;;0.93;;
61108;SDS011;46995;55.740;37.402;2023-03-01T07:12:38;2.00;;;1.02;;
61108;SDS011;46995;55.740;37.402;2023-03-01T07:15:04;3.15;;;1.02;;
61108;SDS011;46995;55.740;37.402;2023-03-01T07:17:31;9.30;;;1.40;;
61108;SDS011;46995;55.740;37.402;2023-03-01T07:19:57;4.70;;;1.30;;
61108;SDS011;46995;55.740;37.402;2023-03-01T07:22:26;9.07;;;1.33;;
61108;SDS011;46995;55.740;37.402;2023-03-01T07:24:52;8.55;;;1.20;;
61108;SDS011;46995;55.740;37.402;2023-03-01T07:27:18;4.88;;;1.30;;
61108;SDS011;46995;55.740;37.402;2023-03-01T07:29:44;4.30;;;1.65;;
61108;SDS011;46995;55.740;37.402;2023-03-01T07:32:10;6.07;;;1.10;;
61108;SDS011;46995;55.740;37.402;2023-03-01T07:34:36;4.07;;;1.00;;
61108;SDS011;46995;55.740;37.402;2023-03-01T07:37:04;4.53;;;1.50;;
61108;SDS011;46995;55.740;37.402;2023-03-01T07:39:30;3.92;;;1.20;;
61108;SDS011;46995;55.740;37.402;2023-03-01T07:41:56;4.43;;;1.50;;
61108;SDS011;46995;55.740;37.402;2023-03-01T07:44:22;5.78;;;1.75;;
61108;SDS011;46995;55.740;37.402;2023-03-01T07:46:48;5.97;;;1.40;;
61108;SDS011;46995;55.740;37.402;2023-03-01T07:49:16;3.03;;;1.20;;
61108;SDS011;46995;55.740;37.402;2023-03-01T07:51:42;3.55;;;1.02;;
61108;SDS011;46995;55.740;37.402;2023-03-01T07:54:08;4.13;;;1.20;;
61108;SDS011;46995;55.740;37.402;2023-03-01T07:56:34;3.03;;;1.23;;
61108;SDS011;46995;55.740;37.402;2023-03-01T07:59:00;10.73;;;1.40;;
61108;SDS011;46995;55.740;37.402;2023-03-01T08:01:26;4.90;;;1.52;;
61108;SDS011;46995;55.740;37.402;2023-03-01T08:03:52;3.35;;;1.55;;
61108;SDS011;46995;55.740;37.402;2023-03-01T08:06:18;9.13;;;1.85;;
61108;SDS011;46995;55.740;37.402;2023-03-01T08:08:44;8.50;;;2.33;;
61108;SDS011;46995;55.740;37.402;2023-03-01T08:11:11;4.28;;;1.10;;
61108;SDS011;46995;55.740;37.402;2023-03-01T08:13:42;7.15;;;1.30;;
61108;SDS011;46995;55.740;37.402;2023-03-01T08:16:13;2.85;;;1.25;;
61108;SDS011;46995;55.740;37.402;2023-03-01T08:18:40;11.55;;;1.67;;
61108;SDS011;46995;55.740;37.402;2023-03-01T08:21:08;4.28;;;1.10;;
61108;SDS011;46995;55.740;37.402;2023-03-01T08:23:37;6.28;;;1.52;;
61108;SDS011;46995;55.740;37.402;2023-03-01T08:26:04;4.85;;;1.33;;
61108;SDS011;46995;55.740;37.402;2023-03-01T08:28:35;4.72;;;1.58;;
61108;SDS011;46995;55.740;37.402;2023-03-01T08:31:01;5.70;;;1.00;;
61108;SDS011;46995;55.740;37.402;2023-03-01T08:33:27;8.80;;;1.38;;
61108;SDS011;46995;55.740;37.402;2023-03-01T08:36:02;5.78;;;1.50;;
61108;SDS011;46995;55.740;37.402;2023-03-01T08:38:29;8.40;;;1.58;;
61108;SDS011;46995;55.740;37.402;2023-03-01T08:40:55;6.50;;;1.33;;
61108;SDS011;46995;55.740;37.402;2023-03-01T08:43:21;11.32;;;1.52;;
61108;SDS011;46995;55.740;37.402;2023-03-01T08:45:50;4.38;;;1.30;;
61108;SDS011;46995;55.740;37.402;2023-03-01T08:48:16;6.95;;;1.60;;
61108;SDS011;46995;55.740;37.402;2023-03-01T08:50:42;7.78;;;1.67;;
61108;SDS011;46995;55.740;37.402;2023-03-01T08:53:07;6.57;;;1.50;;
61108;SDS011;46995;55.740;37.402;2023-03-01T08:55:33;3.60;;;1.00;;
61108;SDS011;46995;55.740;37.402;2023-03-01T08:58:00;8.80;;;1.55;;
61108;SDS011;46995;55.740;37.402;2023-03-01T09:00:25;2.80;;;0.93;;
61108;SDS011;46995;55.740;37.402;2023-03-01T09:02:51;6.45;;;1.20;;
61108;SDS011;46995;55.740;37.402;2023-03-01T09:05:17;6.93;;;2.55;;
61108;SDS011;46995;55.740;37.402;2023-03-01T09:07:43;6.35;;;1.88;;
61108;SDS011;46995;55.740;37.402;2023-03-01T09:10:10;5.60;;;1.02;;
61108;SDS011;46995;55.740;37.402;2023-03-01T09:12:36;3.90;;;1.33;;
61108;SDS011;46995;55.740;37.402;2023-03-01T09:15:02;2.72;;;0.77;;
61108;SDS011;46995;55.740;37.402;2023-03-01T09:17:30;6.75;;;1.27;;
61108;SDS011;46995;55.740;37.402;2023-03-01T09:19:56;4.93;;;1.35;;
61108;SDS011;46995;55.740;37.402;2023-03-01T09:22:22;4.68;;;0.98;;
61108;SDS011;46995;55.740;37.402;2023-03-01T09:24:48;2.88;;;1.00;;
61108;SDS011;46995;55.740;37.402;2023-03-01T09:27:13;2.58;;;1.05;;
61108;SDS011;46995;55.740;37.402;2023-03-01T09:29:39;6.03;;;1.30;;
61108;SDS011;46995;55.740;37.402;2023-03-01T09:32:05;7.35;;;1.17;;
61108;SDS011;46995;55.740;37.402;2023-03-01T09:34:33;2.50;;;0.90;;
61108;SDS011;46995;55.740;37.402;2023-03-01T09:37:19;8.23;;;1.27;;
61108;SDS011;46995;55.740;37.402;2023-03-01T09:39:45;6.43;;;1.25;;
61108;SDS011;46995;55.740;37.402;2023-03-01T09:42:12;4.57;;;1.17;;
61108;SDS011;46995;55.740;37.402;2023-03-01T09:47:20;4.97;;;1.00;;
61108;SDS011;46995;55.740;37.402;2023-03-01T09:50:34;3.97;;;1.25;;
61108;SDS011;46995;55.740;37.402;2023-03-01T09:53:00;5.50;;;1.48;;
61108;SDS011;46995;55.740;37.402;2023-03-01T10:00:58;4.22;;;1.00;;
61108;SDS011;46995;55.740;37.402;2023-03-01T10:03:32;7.32;;;1.38;;
61108;SDS011;46995;55.740;37.402;2023-03-01T10:06:06;5.80;;;1.83;;
61108;SDS011;46995;55.740;37.402;2023-03-01T10:08:53;7.07;;;1.38;;
61108;SDS011;46995;55.740;37.402;2023-03-01T10:11:28;7.03;;;1.23;;
61108;SDS011;46995;55.740;37.402;2023-03-01T10:20:22;4.82;;;1.83;;
61108;SDS011;46995;55.740;37.402;2023-03-01T10:22:51;3.58;;;1.25;;
61108;SDS011;46995;55.740;37.402;2023-03-01T10:25:23;2.90;;;1.10;;
61108;SDS011;46995;55.740;37.402;2023-03-01T10:31:04;4.88;;;0.90;;
61108;SDS011;46995;55.740;37.402;2023-03-01T10:33:35;3.33;;;1.00;;
61108;SDS011;46995;55.740;37.402;2023-03-01T10:36:05;2.60;;;1.00;;
61108;SDS011;46995;55.740;37.402;2023-03-01T10:38:47;4.60;;;1.27;;
61108;SDS011;46995;55.740;37.402;2023-03-01T10:41:23;4.63;;;1.20;;
61108;SDS011;46995;55.740;37.402;2023-03-01T10:43:52;3.35;;;1.20;;
61108;SDS011;46995;55.740;37.402;2023-03-01T10:46:29;2.63;;;1.02;;
61108;SDS011;46995;55.740;37.402;2023-03-01T10:49:07;3.55;;;0.80;;
61108;SDS011;46995;55.740;37.402;2023-03-01T10:51:46;4.80;;;1.30;;
61108;SDS011;46995;55.740;37.402;2023-03-01T10:56:53;4.13;;;0.93;;
61108;SDS011;46995;55.740;37.402;2023-03-01T11:07:29;7.07;;;1.20;;
61108;SDS011;46995;55.740;37.402;2023-03-01T11:09:55;1.92;;;0.88;;
61108;SDS011;46995;55.740;37.402;2023-03-01T11:12:21;3.67;;;1.00;;
61108;SDS011;46995;55.740;37.402;2023-03-01T11:14:48;4.60;;;0.90;;
61108;SDS011;46995;55.740;37.402;2023-03-01T11:17:21;2.25;;;0.90;;
61108;SDS011;46995;55.740;37.402;2023-03-01T11:22:50;3.75;;;1.00;;
61108;SDS011;46995;55.740;37.402;2023-03-01T11:25:20;3.40;;;0.90;;
61108;SDS011;46995;55.740;37.402;2023-03-01T11:27:50;5.82;;;1.27;;
61108;SDS011;46995;55.740;37.402;2023-03-01T11:30:32;5.15;;;1.20;;
61108;SDS011;46995;55.740;37.402;2023-03-01T11:33:47;3.28;;;0.95;;
61108;SDS011;46995;55.740;37.402;2023-03-01T11:36:01;4.82;;;0.80;;
61108;SDS011;46995;55.740;37.402;2023-03-01T11:38:41;3.33;;;1.00;;
61108;SDS011;46995;55.740;37.402;2023-03-01T11:41:25;5.82;;;0.80;;
61108;SDS011;46995;55.740;37.402;2023-03-01T11:44:03;4.95;;;1.00;;
61108;SDS011;46995;55.740;37.402;2023-03-01T11:47:47;2.63;;;0.90;;
61108;SDS011;46995;55.740;37.402;2023-03-01T12:07:23;2.50;;;0.90;;
61108;SDS011;46995;55.740;37.402;2023-03-01T12:12:35;5.10;;;0.75;;
61108;SDS011;46995;55.740;37.402;2023-03-01T12:23:16;4.18;;;0.98;;
61108;SDS011;46995;55.740;37.402;2023-03-01T12:50:57;3.22;;;1.10;;
61108;SDS011;46995;55.740;37.402;2023-03-01T12:53:29;3.00;;;1.10;;
61108;SDS011;46995;55.740;37.402;2023-03-01T12:56:06;3.15;;;1.00;;
61108;SDS011;46995;55.740;37.402;2023-03-01T13:07:25;3.45;;;0.80;;
61108;SDS011;46995;55.740;37.402;2023-03-01T13:12:49;2.65;;;0.70;;
61108;SDS011;46995;55.740;37.402;2023-03-01T13:17:50;2.70;;;0.85;;
61108;SDS011;46995;55.740;37.402;2023-03-01T13:20:34;2.88;;;0.93;;
61108;SDS011;46995;55.740;37.402;2023-03-01T13:26:04;4.28;;;1.25;;
61108;SDS011;46995;55.740;37.402;2023-03-01T13:36:44;10.55;;;1.02;;
61108;SDS011;46995;55.740;37.402;2023-03-01T13:39:00;4.20;;;0.85;;
61108;SDS011;46995;55.740;37.402;2023-03-01T13:46:37;1.98;;;1.20;;
61108;SDS011;46995;55.740;37.402;2023-03-01T13:49:05;3.70;;;0.93;;
61108;SDS011;46995;55.740;37.402;2023-03-01T13:51:37;7.10;;;1.10;;
61108;SDS011;46995;55.740;37.402;2023-03-01T13:54:04;2.78;;;1.13;;
61108;SDS011;46995;55.740;37.402;2023-03-01T13:56:33;3.25;;;1.05;;
61108;SDS011;46995;55.740;37.402;2023-03-01T13:59:06;1.45;;;0.85;;
61108;SDS011;46995;55.740;37.402;2023-03-01T14:01:39;4.20;;;0.88;;
61108;SDS011;46995;55.740;37.402;2023-03-01T14:07:10;3.50;;;1.00;;
61108;SDS011;46995;55.740;37.402;2023-03-01T14:09:37;3.33;;;1.10;;
61108;SDS011;46995;55.740;37.402;2023-03-01T14:15:02;2.38;;;0.85;;
61108;SDS011;46995;55.740;37.402;2023-03-01T14:23:21;1.73;;;0.90;;
61108;SDS011;46995;55.740;37.402;2023-03-01T14:25:52;4.35;;;1.00;;
61108;SDS011;46995;55.740;37.402;2023-03-01T14:28:27;2.88;;;0.80;;
61108;SDS011;46995;55.740;37.402;2023-03-01T14:30:56;6.80;;;1.10;;
61108;SDS011;46995;55.740;37.402;2023-03-01T14:33:34;3.50;;;0.98;;
61108;SDS011;46995;55.740;37.402;2023-03-01T14:36:07;7.50;;;1.30;;
61108;SDS011;46995;55.740;37.402;2023-03-01T14:38:44;5.22;;;1.05;;
61108;SDS011;46995;55.740;37.402;2023-03-01T14:41:22;2.28;;;1.17;;
61108;SDS011;46995;55.740;37.402;2023-03-01T14:44:03;3.63;;;1.10;;
61108;SDS011;46995;55.740;37.402;2023-03-01T14:46:38;7.05;;;1.15;;
61108;SDS011;46995;55.740;37.402;2023-03-01T14:49:10;3.25;;;1.15;;
61108;SDS011;46995;55.740;37.402;2023-03-01T14:51:41;3.40;;;0.98;;
61108;SDS011;46995;55.740;37.402;2023-03-01T14:54:54;6.47;;;1.05;;
61108;SDS011;46995;55.740;37.402;2023-03-01T14:57:05;5.90;;;1.30;;
61108;SDS011;46995;55.740;37.402;2023-03-01T14:59:34;3.88;;;1.15;;
61108;SDS011;46995;55.740;37.402;2023-03-01T15:02:00;5.10;;;1.25;;
61108;SDS011;46995;55.740;37.402;2023-03-01T15:04:27;5.75;;;1.23;;
61108;SDS011;46995;55.740;37.402;2023-03-01T15:06:54;3.95;;;0.90;;
61108;SDS011;46995;55.740;37.402;2023-03-01T15:09:31;2.03;;;1.00;;
61108;SDS011;46995;55.740;37.402;2023-03-01T15:12:00;1.30;;;0.77;;
61108;SDS011;46995;55.740;37.402;2023-03-01T15:17:28;2.75;;;0.90;;
61108;SDS011;46995;55.740;37.402;2023-03-01T15:20:00;2.58;;;0.98;;
61108;SDS011;46995;55.740;37.402;2023-03-01T15:22:29;1.38;;;0.82;;
61108;SDS011;46995;55.740;37.402;2023-03-01T15:24:55;3.00;;;0.93;;
61108;SDS011;46995;55.740;37.402;2023-03-01T15:27:23;1.80;;;0.98;;
61108;SDS011;46995;55.740;37.402;2023-03-01T15:32:29;4.82;;;0.95;;
61108;SDS011;46995;55.740;37.402;2023-03-01T15:34:58;3.22;;;0.80;;
61108;SDS011;46995;55.740;37.402;2023-03-01T15:37:43;3.55;;;0.95;;
61108;SDS011;46995;55.740;37.402;2023-03-01T15:40:26;2.53;;;0.77;;
61108;SDS011;46995;55.740;37.402;2023-03-01T15:43:00;5.00;;;1.10;;
61108;SDS011;46995;55.740;37.402;2023-03-01T15:45:29;1.80;;;0.82;;
61108;SDS011;46995;55.740;37.402;2023-03-01T15:48:03;6.05;;;1.70;;
61108;SDS011;46995;55.740;37.402;2023-03-01T15:50:34;12.43;;;1.05;;
61108;SDS011;46995;55.740;37.402;2023-03-01T15:53:06;3.47;;;0.98;;
61108;SDS011;46995;55.740;37.402;2023-03-01T15:55:36;2.90;;;0.95;;
61108;SDS011;46995;55.740;37.402;2023-03-01T15:58:04;2.77;;;1.20;;
61108;SDS011;46995;55.740;37.402;2023-03-01T16:00:35;3.42;;;1.00;;
61108;SDS011;46995;55.740;37.402;2023-03-01T16:03:01;6.13;;;1.10;;
61108;SDS011;46995;55.740;37.402;2023-03-01T16:05:30;1.73;;;0.80;;
61108;SDS011;46995;55.740;37.402;2023-03-01T16:07:57;4.18;;;1.38;;
61108;SDS011;46995;55.740;37.402;2023-03-01T16:10:23;2.75;;;0.98;;
61108;SDS011;46995;55.740;37.402;2023-03-01T16:12:50;3.40;;;0.90;;
61108;SDS011;46995;55.740;37.402;2023-03-01T16:17:51;3.47;;;0.80;;
61108;SDS011;46995;55.740;37.402;2023-03-01T16:20:22;3.70;;;0.98;;
61108;SDS011;46995;55.740;37.402;2023-03-01T16:22:48;3.20;;;0.85;;
61108;SDS011;46995;55.740;37.402;2023-03-01T16:25:15;6.10;;;1.17;;
61108;SDS011;46995;55.740;37.402;2023-03-01T16:27:48;3.00;;;1.08;;
61108;SDS011;46995;55.740;37.402;2023-03-01T16:30:16;5.68;;;1.00;;
61108;SDS011;46995;55.740;37.402;2023-03-01T16:32:47;11.52;;;1.40;;
61108;SDS011;46995;55.740;37.402;2023-03-01T16:35:18;8.90;;;1.35;;
61108;SDS011;46995;55.740;37.402;2023-03-01T16:37:49;4.60;;;1.02;;
61108;SDS011;46995;55.740;37.402;2023-03-01T16:40:23;8.00;;;1.35;;
61108;SDS011;46995;55.740;37.402;2023-03-01T16:45:38;1.55;;;0.90;;
61108;SDS011;46995;55.740;37.402;2023-03-01T16:48:10;5.20;;;1.00;;
61108;SDS011;46995;55.740;37.402;2023-03-01T16:53:04;8.00;;;1.40;;
61108;SDS011;46995;55.740;37.402;2023-03-01T16:55:41;4.43;;;1.23;;
61108;SDS011;46995;55.740;37.402;2023-03-01T16:58:12;3.58;;;0.95;;
61108;SDS011;46995;55.740;37.402;2023-03-01T17:00:44;6.22;;;1.77;;
61108;SDS011;46995;55.740;37.402;2023-03-01T17:03:11;2.30;;;1.10;;
61108;SDS011;46995;55.740;37.402;2023-03-01T17:05:42;3.10;;;1.10;;
61108;SDS011;46995;55.740;37.402;2023-03-01T17:08:08;4.10;;;1.10;;
61108;SDS011;46995;55.740;37.402;2023-03-01T17:10:34;4.75;;;1.00;;
61108;SDS011;46995;55.740;37.402;2023-03-01T17:13:00;3.03;;;0.98;;
61108;SDS011;46995;55.740;37.402;2023-03-01T17:15:39;6.68;;;1.48;;
61108;SDS011;46995;55.740;37.402;2023-03-01T17:18:11;3.20;;;0.90;;
61108;SDS011;46995;55.740;37.402;2023-03-01T17:20:37;3.47;;;0.88;;
61108;SDS011;46995;55.740;37.402;2023-03-01T17:23:05;3.63;;;0.93;;
61108;SDS011;46995;55.740;37.402;2023-03-01T17:25:32;5.28;;;1.23;;
61108;SDS011;46995;55.740;37.402;2023-03-01T17:28:00;3.47;;;1.25;;
61108;SDS011;46995;55.740;37.402;2023-03-01T17:30:27;5.50;;;1.03;;
61108;SDS011;46995;55.740;37.402;2023-03-01T17:32:53;5.97;;;0.90;;
61108;SDS011;46995;55.740;37.402;2023-03-01T17:35:20;1.92;;;0.80;;
61108;SDS011;46995;55.740;37.402;2023-03-01T17:37:46;6.30;;;1.20;;
61108;SDS011;46995;55.740;37.402;2023-03-01T17:40:12;6.47;;;1.23;;
61108;SDS011;46995;55.740;37.402;2023-03-01T17:42:38;2.58;;;0.73;;